sensor_id;sensor_type;location;lat;lon;timestamp;pressure;altitude;pressure_sealevel;temperature;humidity
44453;BME280;30155;52.164;21.236;2023-04-01T00:03:23;98589.05;;;9.56;82.12
44453;BME280;30155;52.164;21.236;2023-04-01T00:08:17;98586.31;;;9.54;82.12
44453;BME280;30155;52.164;21.236;2023-04-01T00:13:10;98580.08;;;9.54;82.19
44453;BME280;30155;52.164;21.236;2023-04-01T00:18:03;98573.86;;;9.53;82.40
44453;BME280;30155;52.164;21.236;2023-04-01T00:22:56;98565.76;;;9.51;82.40
44453;BME280;30155;52.164;21.236;2023-04-01T00:27:53;98570.45;;;9.49;82.30
44453;BME280;30155;52.164;21.236;2023-04-01T00:32:47;98565.15;;;9.45;82.15
44453;BME280;30155;52.164;21.236;2023-04-01T00:37:43;98555.07;;;9.35;82.00
44453;BME280;30155;52.164;21.236;2023-04-01T00:42:36;98559.52;;;9.25;82.41
44453;BME280;30155;52.164;21.236;2023-04-01T00:47:29;98552.84;;;9.20;82.63
44453;BME280;30155;52.164;21.236;2023-04-01T00:52:25;98554.43;;;9.17;82.60
44453;BME280;30155;52.164;21.236;2023-04-01T00:57:22;98556.88;;;9.14;82.50
44453;BME280;30155;52.164;21.236;2023-04-01T01:02:18;98557.73;;;9.15;82.85
44453;BME280;30155;52.164;21.236;2023-04-01T01:12:16;98566.88;;;9.17;82.80
44453;BME280;30155;52.164;21.236;2023-04-01T01:27:42;98560.31;;;9.17;82.95
44453;BME280;30155;52.164;21.236;2023-04-01T01:32:59;98564.34;;;9.12;82.84
44453;BME280;30155;52.164;21.236;2023-04-01T01:38:00;98566.69;;;9.03;83.08
44453;BME280;30155;52.164;21.236;2023-04-01T01:42:57;98562.27;;;8.95;83.04
44453;BME280;30155;52.164;21.236;2023-04-01T01:47:53;98561.85;;;8.86;82.82
44453;BME280;30155;52.164;21.236;2023-04-01T01:52:49;98560.03;;;8.79;82.86
44453;BME280;30155;52.164;21.236;2023-04-01T01:57:44;98553.70;;;8.74;82.94
44453;BME280;30155;52.164;21.236;2023-04-01T02:02:45;98554.43;;;8.69;82.94
44453;BME280;30155;52.164;21.236;2023-04-01T02:07:40;98552.22;;;8.66;82.98
44453;BME280;30155;52.164;21.236;2023-04-01T02:12:36;98542.21;;;8.65;83.10
44453;BME280;30155;52.164;21.236;2023-04-01T02:17:31;98537.20;;;8.65;82.99
44453;BME280;30155;52.164;21.236;2023-04-01T02:22:38;98533.08;;;8.64;83.06
44453;BME280;30155;52.164;21.236;2023-04-01T02:27:33;98527.05;;;8.62;83.21
44453;BME280;30155;52.164;21.236;2023-04-01T02:32:27;98523.29;;;8.58;83.03
44453;BME280;30155;52.164;21.236;2023-04-01T02:37:22;98518.34;;;8.51;82.96
44453;BME280;30155;52.164;21.236;2023-04-01T02:42:16;98522.87;;;8.48;82.76
44453;BME280;30155;52.164;21.236;2023-04-01T02:47:09;98524.58;;;8.49;82.99
44453;BME280;30155;52.164;21.236;2023-04-01T02:52:02;98529.91;;;8.51;83.04
44453;BME280;30155;52.164;21.236;2023-04-01T02:56:55;98525.41;;;8.53;83.09
44453;BME280;30155;52.164;21.236;2023-04-01T03:01:48;98525.38;;;8.56;83.18
44453;BME280;30155;52.164;21.236;2023-04-01T03:06:41;98526.39;;;8.58;83.24
44453;BME280;30155;52.164;21.236;2023-04-01T03:11:34;98529.05;;;8.52;82.84
44453;BME280;30155;52.164;21.236;2023-04-01T03:16:27;98528.77;;;8.45;83.09
44453;BME280;30155;52.164;21.236;2023-04-01T03:21:22;98534.15;;;8.37;82.92
44453;BME280;30155;52.164;21.236;2023-04-01T03:26:15;98541.11;;;8.31;83.03
44453;BME280;30155;52.164;21.236;2023-04-01T03:31:09;98548.70;;;8.31;83.29
44453;BME280;30155;52.164;21.236;2023-04-01T03:36:06;98550.92;;;8.34;83.56
44453;BME280;30155;52.164;21.236;2023-04-01T03:41:01;98553.31;;;8.37;83.54
44453;BME280;30155;52.164;21.236;2023-04-01T03:45:55;98557.96;;;8.42;83.84
44453;BME280;30155;52.164;21.236;2023-04-01T03:50:49;98560.35;;;8.47;83.98
44453;BME280;30155;52.164;21.236;2023-04-01T03:55:42;98568.63;;;8.49;83.82
44453;BME280;30155;52.164;21.236;2023-04-01T04:00:36;98571.91;;;8.47;83.58
44453;BME280;30155;52.164;21.236;2023-04-01T04:05:29;98582.80;;;8.41;83.60
44453;BME280;30155;52.164;21.236;2023-04-01T04:10:23;98579.01;;;8.41;83.72
44453;BME280;30155;52.164;21.236;2023-04-01T04:15:17;98584.73;;;8.43;83.81
44453;BME280;30155;52.164;21.236;2023-04-01T04:20:10;98588.50;;;8.42;83.84
44453;BME280;30155;52.164;21.236;2023-04-01T04:25:04;98595.77;;;8.43;83.79
44453;BME280;30155;52.164;21.236;2023-04-01T04:29:58;98593.86;;;8.44;83.85
44453;BME280;30155;52.164;21.236;2023-04-01T04:34:51;98602.83;;;8.46;84.06
44453;BME280;30155;52.164;21.236;2023-04-01T04:39:44;98597.09;;;8.49;84.00
44453;BME280;30155;52.164;21.236;2023-04-01T04:44:37;98601.89;;;8.54;84.08
44453;BME280;30155;52.164;21.236;2023-04-01T04:49:30;98605.46;;;8.61;84.01
44453;BME280;30155;52.164;21.236;2023-04-01T04:54:27;98607.30;;;8.68;83.98
44453;BME280;30155;52.164;21.236;2023-04-01T04:59:21;98610.17;;;8.74;83.79
44453;BME280;30155;52.164;21.236;2023-04-01T05:04:50;98607.29;;;8.87;83.67
44453;BME280;30155;52.164;21.236;2023-04-01T05:09:43;98609.06;;;8.99;83.67
44453;BME280;30155;52.164;21.236;2023-04-01T05:14:37;98609.67;;;9.08;83.61
44453;BME280;30155;52.164;21.236;2023-04-01T05:19:33;98614.98;;;9.11;83.40
44453;BME280;30155;52.164;21.236;2023-04-01T05:24:26;98621.16;;;9.16;83.57
44453;BME280;30155;52.164;21.236;2023-04-01T05:29:19;98620.52;;;9.27;83.52
44453;BME280;30155;52.164;21.236;2023-04-01T05:34:14;98621.27;;;9.38;83.19
44453;BME280;30155;52.164;21.236;2023-04-01T05:39:08;98620.66;;;9.44;83.31
44453;BME280;30155;52.164;21.236;2023-04-01T05:44:01;98623.70;;;9.50;83.23
44453;BME280;30155;52.164;21.236;2023-04-01T05:49:03;98625.63;;;9.63;83.21
44453;BME280;30155;52.164;21.236;2023-04-01T05:53:56;98631.85;;;9.77;82.77
44453;BME280;30155;52.164;21.236;2023-04-01T05:58:52;98630.38;;;9.96;82.73
44453;BME280;30155;52.164;21.236;2023-04-01T06:03:46;98632.02;;;10.15;82.19
44453;BME280;30155;52.164;21.236;2023-04-01T06:08:39;98626.63;;;10.27;81.79
44453;BME280;30155;52.164;21.236;2023-04-01T06:56:45;98638.08;;;10.15;82.91
44453;BME280;30155;52.164;21.236;2023-04-01T07:01:51;98636.34;;;10.15;82.79
44453;BME280;30155;52.164;21.236;2023-04-01T07:06:56;98637.41;;;10.13;82.58
44453;BME280;30155;52.164;21.236;2023-04-01T07:11:50;98637.13;;;10.09;82.55
44453;BME280;30155;52.164;21.236;2023-04-01T07:17:12;98637.58;;;10.14;82.52
44453;BME280;30155;52.164;21.236;2023-04-01T07:22:26;98632.02;;;10.28;82.50
44453;BME280;30155;52.164;21.236;2023-04-01T07:28:19;98629.59;;;10.62;82.09
44453;BME280;30155;52.164;21.236;2023-04-01T07:38:54;98631.02;;;11.18;80.90
44453;BME280;30155;52.164;21.236;2023-04-01T07:44:32;98626.96;;;11.04;81.03
44453;BME280;30155;52.164;21.236;2023-04-01T07:49:30;98625.30;;;10.89;81.40
44453;BME280;30155;52.164;21.236;2023-04-01T07:54:51;98629.80;;;10.70;81.18
44453;BME280;30155;52.164;21.236;2023-04-01T08:05:25;98642.27;;;10.37;81.49
44453;BME280;30155;52.164;21.236;2023-04-01T08:10:33;98642.08;;;10.40;81.51
44453;BME280;30155;52.164;21.236;2023-04-01T08:21:02;98643.23;;;11.51;80.26
44453;BME280;30155;52.164;21.236;2023-04-01T08:31:25;98651.58;;;11.59;79.71
44453;BME280;30155;52.164;21.236;2023-04-01T08:36:29;98654.48;;;11.43;79.54
44453;BME280;30155;52.164;21.236;2023-04-01T08:47:19;98659.54;;;11.43;79.30
44453;BME280;30155;52.164;21.236;2023-04-01T08:57:35;98667.99;;;11.79;78.61
44453;BME280;30155;52.164;21.236;2023-04-01T09:34:52;98677.17;;;11.17;79.14
44453;BME280;30155;52.164;21.236;2023-04-01T09:56:29;98675.59;;;11.28;78.32
44453;BME280;30155;52.164;21.236;2023-04-01T10:23:07;98710.89;;;10.92;78.32
44453;BME280;30155;52.164;21.236;2023-04-01T10:33:43;98712.80;;;10.92;78.55
44453;BME280;30155;52.164;21.236;2023-04-01T10:44:11;98717.48;;;11.01;79.09
44453;BME280;30155;52.164;21.236;2023-04-01T10:49:44;98716.56;;;11.05;78.81
44453;BME280;30155;52.164;21.236;2023-04-01T11:06:06;98720.98;;;11.11;78.54
44453;BME280;30155;52.164;21.236;2023-04-01T11:22:19;98717.50;;;11.68;77.25
44453;BME280;30155;52.164;21.236;2023-04-01T11:37:53;98696.54;;;15.15;72.70
44453;BME280;30155;52.164;21.236;2023-04-01T11:43:22;98697.42;;;15.41;71.11
44453;BME280;30155;52.164;21.236;2023-04-01T11:49:17;98694.59;;;15.42;70.34
44453;BME280;30155;52.164;21.236;2023-04-01T11:59:47;98701.89;;;14.91;69.84
44453;BME280;30155;52.164;21.236;2023-04-01T12:04:54;98705.77;;;14.39;69.87
44453;BME280;30155;52.164;21.236;2023-04-01T12:15:12;98711.00;;;13.54;70.16
44453;BME280;30155;52.164;21.236;2023-04-01T12:25:16;98718.05;;;14.19;70.54
44453;BME280;30155;52.164;21.236;2023-04-01T12:41:19;98718.99;;;14.17;70.39
44453;BME280;30155;52.164;21.236;2023-04-01T12:47:11;98716.16;;;14.06;70.23
44453;BME280;30155;52.164;21.236;2023-04-01T12:57:04;98720.70;;;13.69;70.01
44453;BME280;30155;52.164;21.236;2023-04-01T13:02:19;98722.42;;;13.63;70.35
44453;BME280;30155;52.164;21.236;2023-04-01T13:07:34;98724.48;;;13.58;69.83
44453;BME280;30155;52.164;21.236;2023-04-01T13:12:40;98730.75;;;13.58;70.72
44453;BME280;30155;52.164;21.236;2023-04-01T13:18:03;98739.84;;;13.94;71.00
44453;BME280;30155;52.164;21.236;2023-04-01T13:28:16;98740.81;;;14.10;70.00
44453;BME280;30155;52.164;21.236;2023-04-01T13:33:25;98741.52;;;13.96;70.07
44453;BME280;30155;52.164;21.236;2023-04-01T13:43:37;98747.29;;;13.57;70.13
44453;BME280;30155;52.164;21.236;2023-04-01T13:58:45;98757.59;;;13.50;70.77
44453;BME280;30155;52.164;21.236;2023-04-01T14:09:28;98764.54;;;13.29;70.52
44453;BME280;30155;52.164;21.236;2023-04-01T14:15:03;98765.60;;;13.06;70.43
44453;BME280;30155;52.164;21.236;2023-04-01T14:45:59;98795.89;;;12.68;70.95
44453;BME280;30155;52.164;21.236;2023-04-01T14:51:08;98799.37;;;12.59;70.86
44453;BME280;30155;52.164;21.236;2023-04-01T14:56:03;98802.80;;;12.37;71.08
44453;BME280;30155;52.164;21.236;2023-04-01T15:12:03;98828.91;;;11.89;72.61
44453;BME280;30155;52.164;21.236;2023-04-01T15:22:46;98836.81;;;11.63;73.57
44453;BME280;30155;52.164;21.236;2023-04-01T15:49:18;98888.05;;;10.64;74.72
44453;BME280;30155;52.164;21.236;2023-04-01T15:53:56;98896.17;;;10.52;75.10
44453;BME280;30155;52.164;21.236;2023-04-01T16:09:53;98918.61;;;10.25;76.30
44453;BME280;30155;52.164;21.236;2023-04-01T16:30:35;98959.65;;;9.85;77.09
44453;BME280;30155;52.164;21.236;2023-04-01T16:51:12;98995.38;;;9.49;76.30
44453;BME280;30155;52.164;21.236;2023-04-01T16:56:12;99007.69;;;9.43;76.25
44453;BME280;30155;52.164;21.236;2023-04-01T17:01:32;99013.77;;;9.39;76.42
44453;BME280;30155;52.164;21.236;2023-04-01T17:06:49;99023.63;;;9.39;76.46
44453;BME280;30155;52.164;21.236;2023-04-01T17:43:26;99086.17;;;9.05;77.60
44453;BME280;30155;52.164;21.236;2023-04-01T17:48:54;99097.25;;;9.00;77.65
44453;BME280;30155;52.164;21.236;2023-04-01T17:54:12;99104.34;;;8.95;77.99
44453;BME280;30155;52.164;21.236;2023-04-01T17:59:37;99117.84;;;8.89;77.90
44453;BME280;30155;52.164;21.236;2023-04-01T18:16:19;99137.88;;;8.84;78.18
44453;BME280;30155;52.164;21.236;2023-04-01T18:26:32;99147.39;;;8.80;77.98
44453;BME280;30155;52.164;21.236;2023-04-01T18:31:34;99155.00;;;8.76;78.03
44453;BME280;30155;52.164;21.236;2023-04-01T18:36:50;99157.07;;;8.74;77.97
44453;BME280;30155;52.164;21.236;2023-04-01T18:52:42;99173.30;;;8.74;78.16
44453;BME280;30155;52.164;21.236;2023-04-01T18:57:53;99182.13;;;8.78;78.19
44453;BME280;30155;52.164;21.236;2023-04-01T19:08:34;99194.04;;;8.85;78.17
44453;BME280;30155;52.164;21.236;2023-04-01T19:39:23;99231.70;;;8.64;78.03
44453;BME280;30155;52.164;21.236;2023-04-01T19:44:46;99241.02;;;8.60;78.06
44453;BME280;30155;52.164;21.236;2023-04-01T19:59:59;99265.70;;;8.49;77.75
44453;BME280;30155;52.164;21.236;2023-04-01T20:04:59;99272.59;;;8.46;77.89
44453;BME280;30155;52.164;21.236;2023-04-01T20:10:05;99276.73;;;8.45;77.78
44453;BME280;30155;52.164;21.236;2023-04-01T20:15:20;99282.27;;;8.43;77.73
44453;BME280;30155;52.164;21.236;2023-04-01T20:20:24;99281.87;;;8.40;77.72
44453;BME280;30155;52.164;21.236;2023-04-01T20:25:25;99291.02;;;8.39;77.56
44453;BME280;30155;52.164;21.236;2023-04-01T20:30:47;99292.74;;;8.38;77.78
44453;BME280;30155;52.164;21.236;2023-04-01T20:36:10;99301.20;;;8.36;77.81
44453;BME280;30155;52.164;21.236;2023-04-01T20:41:23;99311.73;;;8.38;77.99
44453;BME280;30155;52.164;21.236;2023-04-01T20:46:42;99319.16;;;8.36;78.03
44453;BME280;30155;52.164;21.236;2023-04-01T20:51:39;99324.66;;;8.33;78.06
44453;BME280;30155;52.164;21.236;2023-04-01T21:07:16;99337.58;;;8.25;78.03
44453;BME280;30155;52.164;21.236;2023-04-01T21:32:36;99378.21;;;8.04;77.59
44453;BME280;30155;52.164;21.236;2023-04-01T21:37:45;99383.36;;;7.99;77.39
44453;BME280;30155;52.164;21.236;2023-04-01T22:20:50;99420.50;;;7.81;76.62
44453;BME280;30155;52.164;21.236;2023-04-01T22:31:03;99432.55;;;7.77;76.59
44453;BME280;30155;52.164;21.236;2023-04-01T22:36:03;99435.61;;;7.71;76.55
44453;BME280;30155;52.164;21.236;2023-04-01T22:46:53;99447.25;;;7.62;76.55
44453;BME280;30155;52.164;21.236;2023-04-01T22:52:20;99450.52;;;7.59;76.49
44453;BME280;30155;52.164;21.236;2023-04-01T22:57:35;99454.43;;;7.53;76.42
44453;BME280;30155;52.164;21.236;2023-04-01T23:02:39;99463.70;;;7.50;76.39
44453;BME280;30155;52.164;21.236;2023-04-01T23:12:42;99471.72;;;7.39;76.28
44453;BME280;30155;52.164;21.236;2023-04-01T23:17:55;99476.50;;;7.36;76.50
44453;BME280;30155;52.164;21.236;2023-04-01T23:38:11;99499.17;;;7.29;76.76
44453;BME280;30155;52.164;21.236;2023-04-01T23:43:39;99496.73;;;7.26;76.69
44453;BME280;30155;52.164;21.236;2023-04-01T23:48:40;99499.29;;;7.23;76.62
44453;BME280;30155;52.164;21.236;2023-04-01T23:53:34;99507.21;;;7.23;76.77
44453;BME280;30155;52.164;21.236;2023-04-01T23:58:50;99513.95;;;7.24;76.76
